sensor_id;sensor_type;location;lat;lon;timestamp;P1;durP1;ratioP1;P2;durP2;ratioP2
12088;SDS011;6107;49.078;8.578;2024-03-23T00:54:15;10.27;;;5.10;;
12088;SDS011;6107;49.078;8.578;2024-03-23T00:56:40;12.60;;;5.07;;
12088;SDS011;6107;49.078;8.578;2024-03-23T00:59:06;11.70;;;5.55;;
12088;SDS011;6107;49.078;8.578;2024-03-23T01:01:31;11.75;;;4.53;;
12088;SDS011;6107;49.078;8.578;2024-03-23T01:03:57;12.80;;;5.35;;
12088;SDS011;6107;49.078;8.578;2024-03-23T01:06:22;13.57;;;5.97;;
12088;SDS011;6107;49.078;8.578;2024-03-23T01:08:48;9.02;;;5.45;;
12088;SDS011;6107;49.078;8.578;2024-03-23T01:11:14;7.22;;;4.40;;
12088;SDS011;6107;49.078;8.578;2024-03-23T01:13:39;6.57;;;3.78;;
12088;SDS011;6107;49.078;8.578;2024-03-23T01:16:05;8.85;;;4.70;;
12088;SDS011;6107;49.078;8.578;2024-03-23T01:18:31;9.95;;;4.70;;
12088;SDS011;6107;49.078;8.578;2024-03-23T01:20:58;7.20;;;4.35;;
12088;SDS011;6107;49.078;8.578;2024-03-23T01:23:23;9.48;;;4.90;;
12088;SDS011;6107;49.078;8.578;2024-03-23T01:25:52;9.68;;;4.78;;
12088;SDS011;6107;49.078;8.578;2024-03-23T01:28:19;7.00;;;4.40;;
12088;SDS011;6107;49.078;8.578;2024-03-23T01:30:48;10.43;;;4.88;;
12088;SDS011;6107;49.078;8.578;2024-03-23T01:33:15;11.82;;;4.88;;
12088;SDS011;6107;49.078;8.578;2024-03-23T01:35:41;7.18;;;4.75;;
12088;SDS011;6107;49.078;8.578;2024-03-23T01:38:07;10.90;;;5.20;;
12088;SDS011;6107;49.078;8.578;2024-03-23T01:40:32;12.40;;;5.43;;
12088;SDS011;6107;49.078;8.578;2024-03-23T01:43:07;9.07;;;4.93;;
12088;SDS011;6107;49.078;8.578;2024-03-23T01:45:34;16.08;;;5.72;;
12088;SDS011;6107;49.078;8.578;2024-03-23T01:48:00;10.50;;;4.28;;
12088;SDS011;6107;49.078;8.578;2024-03-23T01:50:27;11.02;;;4.65;;
12088;SDS011;6107;49.078;8.578;2024-03-23T01:52:53;9.27;;;4.97;;
12088;SDS011;6107;49.078;8.578;2024-03-23T01:55:19;9.93;;;4.45;;
12088;SDS011;6107;49.078;8.578;2024-03-23T01:57:45;9.48;;;4.10;;
12088;SDS011;6107;49.078;8.578;2024-03-23T02:00:11;8.60;;;3.92;;
12088;SDS011;6107;49.078;8.578;2024-03-23T02:02:47;6.07;;;3.80;;
12088;SDS011;6107;49.078;8.578;2024-03-23T02:05:13;11.30;;;3.72;;
12088;SDS011;6107;49.078;8.578;2024-03-23T02:07:39;10.25;;;3.08;;
12088;SDS011;6107;49.078;8.578;2024-03-23T02:10:06;4.95;;;3.10;;
12088;SDS011;6107;49.078;8.578;2024-03-23T02:12:32;6.13;;;3.50;;
12088;SDS011;6107;49.078;8.578;2024-03-23T02:14:58;7.40;;;3.47;;
12088;SDS011;6107;49.078;8.578;2024-03-23T02:17:24;13.75;;;4.47;;
12088;SDS011;6107;49.078;8.578;2024-03-23T02:19:50;5.55;;;3.50;;
12088;SDS011;6107;49.078;8.578;2024-03-23T02:22:16;8.27;;;3.72;;
12088;SDS011;6107;49.078;8.578;2024-03-23T02:24:41;6.68;;;3.67;;
12088;SDS011;6107;49.078;8.578;2024-03-23T02:27:07;7.93;;;3.90;;
12088;SDS011;6107;49.078;8.578;2024-03-23T02:29:33;9.27;;;3.50;;
12088;SDS011;6107;49.078;8.578;2024-03-23T02:31:58;6.10;;;3.20;;
12088;SDS011;6107;49.078;8.578;2024-03-23T02:34:24;6.22;;;3.75;;
12088;SDS011;6107;49.078;8.578;2024-03-23T02:36:50;13.80;;;3.83;;
12088;SDS011;6107;49.078;8.578;2024-03-23T02:39:15;10.07;;;4.10;;
12088;SDS011;6107;49.078;8.578;2024-03-23T02:41:41;8.65;;;3.80;;
12088;SDS011;6107;49.078;8.578;2024-03-23T02:44:07;7.30;;;4.00;;
12088;SDS011;6107;49.078;8.578;2024-03-23T02:46:32;7.00;;;3.70;;
12088;SDS011;6107;49.078;8.578;2024-03-23T02:48:58;9.10;;;3.45;;
12088;SDS011;6107;49.078;8.578;2024-03-23T02:51:24;13.30;;;3.67;;
12088;SDS011;6107;49.078;8.578;2024-03-23T02:53:49;10.18;;;4.63;;
12088;SDS011;6107;49.078;8.578;2024-03-23T02:56:16;9.32;;;4.28;;
12088;SDS011;6107;49.078;8.578;2024-03-23T02:58:44;8.02;;;4.00;;
12088;SDS011;6107;49.078;8.578;2024-03-23T03:01:10;6.00;;;3.80;;
12088;SDS011;6107;49.078;8.578;2024-03-23T03:03:36;7.10;;;4.03;;
12088;SDS011;6107;49.078;8.578;2024-03-23T03:06:01;8.80;;;4.53;;
12088;SDS011;6107;49.078;8.578;2024-03-23T03:08:27;10.57;;;4.38;;
12088;SDS011;6107;49.078;8.578;2024-03-23T03:10:53;15.82;;;4.70;;
12088;SDS011;6107;49.078;8.578;2024-03-23T03:13:18;7.97;;;4.70;;
12088;SDS011;6107;49.078;8.578;2024-03-23T03:15:44;7.85;;;4.80;;
12088;SDS011;6107;49.078;8.578;2024-03-23T03:18:10;10.02;;;5.43;;
12088;SDS011;6107;49.078;8.578;2024-03-23T03:20:39;10.70;;;5.22;;
12088;SDS011;6107;49.078;8.578;2024-03-23T03:23:05;8.77;;;5.20;;
12088;SDS011;6107;49.078;8.578;2024-03-23T03:25:30;10.25;;;5.75;;
12088;SDS011;6107;49.078;8.578;2024-03-23T03:27:56;11.85;;;5.35;;
12088;SDS011;6107;49.078;8.578;2024-03-23T03:30:22;14.70;;;6.35;;
12088;SDS011;6107;49.078;8.578;2024-03-23T03:32:47;12.05;;;6.78;;
12088;SDS011;6107;49.078;8.578;2024-03-23T03:35:14;10.60;;;5.85;;
12088;SDS011;6107;49.078;8.578;2024-03-23T03:37:39;10.90;;;6.75;;
12088;SDS011;6107;49.078;8.578;2024-03-23T03:40:05;11.80;;;6.03;;
12088;SDS011;6107;49.078;8.578;2024-03-23T03:42:34;11.55;;;6.75;;
12088;SDS011;6107;49.078;8.578;2024-03-23T03:45:00;14.30;;;5.97;;
12088;SDS011;6107;49.078;8.578;2024-03-23T03:47:26;13.00;;;7.00;;
12088;SDS011;6107;49.078;8.578;2024-03-23T03:49:51;18.95;;;7.80;;
12088;SDS011;6107;49.078;8.578;2024-03-23T03:52:17;22.20;;;8.23;;
12088;SDS011;6107;49.078;8.578;2024-03-23T03:54:42;18.05;;;8.85;;
12088;SDS011;6107;49.078;8.578;2024-03-23T03:57:08;18.20;;;7.88;;
12088;SDS011;6107;49.078;8.578;2024-03-23T03:59:33;18.55;;;8.68;;
12088;SDS011;6107;49.078;8.578;2024-03-23T04:01:59;18.15;;;8.60;;
12088;SDS011;6107;49.078;8.578;2024-03-23T04:04:25;15.45;;;7.70;;
12088;SDS011;6107;49.078;8.578;2024-03-23T04:06:57;14.57;;;8.05;;
12088;SDS011;6107;49.078;8.578;2024-03-23T04:09:26;15.05;;;7.38;;
12088;SDS011;6107;49.078;8.578;2024-03-23T04:11:52;18.45;;;8.32;;
12088;SDS011;6107;49.078;8.578;2024-03-23T04:14:18;16.48;;;8.30;;
12088;SDS011;6107;49.078;8.578;2024-03-23T04:16:43;17.05;;;8.80;;
12088;SDS011;6107;49.078;8.578;2024-03-23T04:19:09;14.18;;;7.70;;
12088;SDS011;6107;49.078;8.578;2024-03-23T04:21:35;17.77;;;8.23;;
12088;SDS011;6107;49.078;8.578;2024-03-23T04:24:02;18.58;;;8.48;;
12088;SDS011;6107;49.078;8.578;2024-03-23T04:26:28;22.15;;;9.10;;
12088;SDS011;6107;49.078;8.578;2024-03-23T04:28:53;18.42;;;8.95;;
12088;SDS011;6107;49.078;8.578;2024-03-23T04:31:19;22.05;;;8.90;;
12088;SDS011;6107;49.078;8.578;2024-03-23T04:33:45;18.23;;;9.38;;
12088;SDS011;6107;49.078;8.578;2024-03-23T04:36:10;16.45;;;8.93;;
12088;SDS011;6107;49.078;8.578;2024-03-23T04:38:36;16.38;;;8.45;;
12088;SDS011;6107;49.078;8.578;2024-03-23T04:41:01;15.80;;;8.07;;
12088;SDS011;6107;49.078;8.578;2024-03-23T04:43:27;19.58;;;8.82;;
12088;SDS011;6107;49.078;8.578;2024-03-23T04:45:53;16.98;;;8.23;;
12088;SDS011;6107;49.078;8.578;2024-03-23T04:48:20;15.10;;;7.50;;
12088;SDS011;6107;49.078;8.578;2024-03-23T04:50:47;14.73;;;7.05;;
12088;SDS011;6107;49.078;8.578;2024-03-23T04:53:19;12.88;;;6.82;;
12088;SDS011;6107;49.078;8.578;2024-03-23T04:55:45;16.98;;;7.47;;
12088;SDS011;6107;49.078;8.578;2024-03-23T04:58:11;12.73;;;6.32;;
12088;SDS011;6107;49.078;8.578;2024-03-23T05:00:36;12.95;;;6.15;;
12088;SDS011;6107;49.078;8.578;2024-03-23T05:03:02;12.48;;;6.97;;
12088;SDS011;6107;49.078;8.578;2024-03-23T05:05:29;9.85;;;5.50;;
12088;SDS011;6107;49.078;8.578;2024-03-23T05:07:54;9.30;;;5.35;;
12088;SDS011;6107;49.078;8.578;2024-03-23T05:10:20;9.05;;;5.00;;
12088;SDS011;6107;49.078;8.578;2024-03-23T05:12:46;7.45;;;4.60;;
12088;SDS011;6107;49.078;8.578;2024-03-23T05:15:11;7.35;;;4.18;;
12088;SDS011;6107;49.078;8.578;2024-03-23T05:17:37;7.35;;;4.10;;
12088;SDS011;6107;49.078;8.578;2024-03-23T05:20:03;8.50;;;4.05;;
12088;SDS011;6107;49.078;8.578;2024-03-23T05:22:34;11.00;;;4.07;;
12088;SDS011;6107;49.078;8.578;2024-03-23T05:25:01;3.67;;;2.50;;
12088;SDS011;6107;49.078;8.578;2024-03-23T05:27:29;4.72;;;2.53;;
12088;SDS011;6107;49.078;8.578;2024-03-23T05:29:55;2.58;;;1.85;;
12088;SDS011;6107;49.078;8.578;2024-03-23T05:32:20;2.67;;;1.42;;
12088;SDS011;6107;49.078;8.578;2024-03-23T05:34:46;4.57;;;2.28;;
12088;SDS011;6107;49.078;8.578;2024-03-23T05:37:11;4.70;;;1.83;;
12088;SDS011;6107;49.078;8.578;2024-03-23T05:39:37;5.10;;;2.10;;
12088;SDS011;6107;49.078;8.578;2024-03-23T05:42:02;2.53;;;1.35;;
12088;SDS011;6107;49.078;8.578;2024-03-23T05:44:28;2.80;;;1.80;;
12088;SDS011;6107;49.078;8.578;2024-03-23T05:46:54;2.95;;;1.60;;
12088;SDS011;6107;49.078;8.578;2024-03-23T05:49:20;3.63;;;1.55;;
12088;SDS011;6107;49.078;8.578;2024-03-23T05:51:46;2.47;;;1.35;;
12088;SDS011;6107;49.078;8.578;2024-03-23T05:54:11;2.03;;;1.30;;
12088;SDS011;6107;49.078;8.578;2024-03-23T05:56:37;2.63;;;1.40;;
12088;SDS011;6107;49.078;8.578;2024-03-23T05:59:03;2.47;;;1.48;;
12088;SDS011;6107;49.078;8.578;2024-03-23T06:01:28;1.98;;;1.38;;
12088;SDS011;6107;49.078;8.578;2024-03-23T06:03:56;2.53;;;1.20;;
12088;SDS011;6107;49.078;8.578;2024-03-23T06:06:21;5.70;;;1.30;;
12088;SDS011;6107;49.078;8.578;2024-03-23T06:08:47;2.45;;;1.10;;
12088;SDS011;6107;49.078;8.578;2024-03-23T06:11:12;2.60;;;1.30;;
12088;SDS011;6107;49.078;8.578;2024-03-23T06:13:38;1.45;;;1.20;;
12088;SDS011;6107;49.078;8.578;2024-03-23T06:16:04;3.92;;;1.20;;
12088;SDS011;6107;49.078;8.578;2024-03-23T06:18:30;1.48;;;0.90;;
12088;SDS011;6107;49.078;8.578;2024-03-23T06:20:56;1.42;;;0.93;;
12088;SDS011;6107;49.078;8.578;2024-03-23T06:23:22;3.42;;;1.13;;
12088;SDS011;6107;49.078;8.578;2024-03-23T06:25:48;2.92;;;1.00;;
12088;SDS011;6107;49.078;8.578;2024-03-23T06:28:13;1.42;;;1.10;;
12088;SDS011;6107;49.078;8.578;2024-03-23T06:30:39;1.45;;;1.02;;
12088;SDS011;6107;49.078;8.578;2024-03-23T06:33:04;1.13;;;0.93;;
12088;SDS011;6107;49.078;8.578;2024-03-23T06:35:30;1.48;;;0.90;;
12088;SDS011;6107;49.078;8.578;2024-03-23T06:37:56;1.85;;;0.95;;
12088;SDS011;6107;49.078;8.578;2024-03-23T06:40:23;1.95;;;1.08;;
12088;SDS011;6107;49.078;8.578;2024-03-23T06:42:49;0.80;;;0.60;;
12088;SDS011;6107;49.078;8.578;2024-03-23T06:45:15;3.97;;;0.70;;
12088;SDS011;6107;49.078;8.578;2024-03-23T06:47:41;3.65;;;0.80;;
12088;SDS011;6107;49.078;8.578;2024-03-23T06:50:07;0.60;;;0.60;;
12088;SDS011;6107;49.078;8.578;2024-03-23T06:52:32;1.48;;;0.65;;
12088;SDS011;6107;49.078;8.578;2024-03-23T06:54:58;0.60;;;0.60;;
12088;SDS011;6107;49.078;8.578;2024-03-23T06:57:24;1.02;;;0.70;;
12088;SDS011;6107;49.078;8.578;2024-03-23T06:59:49;0.50;;;0.50;;
12088;SDS011;6107;49.078;8.578;2024-03-23T07:02:15;0.55;;;0.55;;
12088;SDS011;6107;49.078;8.578;2024-03-23T07:04:41;1.13;;;0.60;;
12088;SDS011;6107;49.078;8.578;2024-03-23T07:07:08;0.57;;;0.50;;
12088;SDS011;6107;49.078;8.578;2024-03-23T07:09:33;0.82;;;0.60;;
12088;SDS011;6107;49.078;8.578;2024-03-23T07:11:59;1.70;;;0.60;;
12088;SDS011;6107;49.078;8.578;2024-03-23T07:14:24;0.30;;;0.30;;
12088;SDS011;6107;49.078;8.578;2024-03-23T07:16:50;0.40;;;0.40;;
12088;SDS011;6107;49.078;8.578;2024-03-23T07:19:17;0.45;;;0.45;;
12088;SDS011;6107;49.078;8.578;2024-03-23T07:21:43;0.98;;;0.55;;
12088;SDS011;6107;49.078;8.578;2024-03-23T07:24:09;1.55;;;0.57;;
12088;SDS011;6107;49.078;8.578;2024-03-23T07:26:35;0.45;;;0.40;;
12088;SDS011;6107;49.078;8.578;2024-03-23T07:29:02;0.63;;;0.30;;
12088;SDS011;6107;49.078;8.578;2024-03-23T07:31:28;0.22;;;0.22;;
12088;SDS011;6107;49.078;8.578;2024-03-23T07:33:54;2.85;;;0.43;;
12088;SDS011;6107;49.078;8.578;2024-03-23T07:36:20;0.32;;;0.30;;
12088;SDS011;6107;49.078;8.578;2024-03-23T07:38:45;0.30;;;0.30;;
12088;SDS011;6107;49.078;8.578;2024-03-23T07:41:11;1.10;;;0.40;;
12088;SDS011;6107;49.078;8.578;2024-03-23T07:43:44;0.25;;;0.25;;
12088;SDS011;6107;49.078;8.578;2024-03-23T07:46:10;0.30;;;0.30;;
12088;SDS011;6107;49.078;8.578;2024-03-23T07:48:39;1.85;;;0.28;;
12088;SDS011;6107;49.078;8.578;2024-03-23T07:51:11;0.52;;;0.30;;
12088;SDS011;6107;49.078;8.578;2024-03-23T07:53:45;1.80;;;0.30;;
12088;SDS011;6107;49.078;8.578;2024-03-23T07:56:13;0.22;;;0.22;;
12088;SDS011;6107;49.078;8.578;2024-03-23T07:58:40;0.55;;;0.50;;
12088;SDS011;6107;49.078;8.578;2024-03-23T08:01:07;0.57;;;0.40;;
12088;SDS011;6107;49.078;8.578;2024-03-23T08:03:34;7.25;;;0.57;;
12088;SDS011;6107;49.078;8.578;2024-03-23T08:06:16;0.95;;;0.60;;
12088;SDS011;6107;49.078;8.578;2024-03-23T08:11:10;1.33;;;0.57;;
12088;SDS011;6107;49.078;8.578;2024-03-23T08:13:39;1.85;;;0.63;;
12088;SDS011;6107;49.078;8.578;2024-03-23T08:16:05;6.43;;;0.98;;
12088;SDS011;6107;49.078;8.578;2024-03-23T08:18:31;7.07;;;2.10;;
12088;SDS011;6107;49.078;8.578;2024-03-23T08:20:58;4.00;;;1.10;;
12088;SDS011;6107;49.078;8.578;2024-03-23T08:23:28;6.50;;;1.20;;
12088;SDS011;6107;49.078;8.578;2024-03-23T08:25:58;3.45;;;1.10;;
12088;SDS011;6107;49.078;8.578;2024-03-23T08:28:25;6.15;;;1.40;;
12088;SDS011;6107;49.078;8.578;2024-03-23T08:30:52;6.20;;;1.40;;
12088;SDS011;6107;49.078;8.578;2024-03-23T08:33:18;7.05;;;1.40;;
12088;SDS011;6107;49.078;8.578;2024-03-23T08:35:52;3.80;;;1.50;;
12088;SDS011;6107;49.078;8.578;2024-03-23T08:38:18;8.80;;;1.45;;
12088;SDS011;6107;49.078;8.578;2024-03-23T08:40:44;3.92;;;1.48;;
12088;SDS011;6107;49.078;8.578;2024-03-23T08:43:10;8.75;;;1.60;;
12088;SDS011;6107;49.078;8.578;2024-03-23T08:45:35;7.93;;;1.70;;
12088;SDS011;6107;49.078;8.578;2024-03-23T08:48:01;9.88;;;2.17;;
12088;SDS011;6107;49.078;8.578;2024-03-23T08:50:26;6.88;;;1.70;;
12088;SDS011;6107;49.078;8.578;2024-03-23T08:52:52;9.82;;;2.22;;
12088;SDS011;6107;49.078;8.578;2024-03-23T08:55:17;11.57;;;2.63;;
12088;SDS011;6107;49.078;8.578;2024-03-23T08:57:43;8.18;;;2.60;;
12088;SDS011;6107;49.078;8.578;2024-03-23T09:00:09;7.53;;;2.13;;
12088;SDS011;6107;49.078;8.578;2024-03-23T09:02:36;11.63;;;2.20;;
12088;SDS011;6107;49.078;8.578;2024-03-23T09:05:02;6.25;;;1.70;;
12088;SDS011;6107;49.078;8.578;2024-03-23T09:07:30;7.15;;;2.30;;
12088;SDS011;6107;49.078;8.578;2024-03-23T09:09:56;7.57;;;1.98;;
12088;SDS011;6107;49.078;8.578;2024-03-23T09:12:22;10.52;;;2.17;;
12088;SDS011;6107;49.078;8.578;2024-03-23T09:14:48;7.97;;;2.13;;
12088;SDS011;6107;49.078;8.578;2024-03-23T09:17:14;9.13;;;2.33;;
12088;SDS011;6107;49.078;8.578;2024-03-23T09:19:40;7.63;;;2.28;;
12088;SDS011;6107;49.078;8.578;2024-03-23T09:22:06;9.98;;;2.70;;
12088;SDS011;6107;49.078;8.578;2024-03-23T09:24:31;10.13;;;2.20;;
12088;SDS011;6107;49.078;8.578;2024-03-23T09:26:57;6.22;;;2.33;;
12088;SDS011;6107;49.078;8.578;2024-03-23T09:29:23;15.00;;;2.88;;
12088;SDS011;6107;49.078;8.578;2024-03-23T09:31:48;7.70;;;2.92;;
12088;SDS011;6107;49.078;8.578;2024-03-23T09:34:15;7.00;;;2.03;;
12088;SDS011;6107;49.078;8.578;2024-03-23T09:36:41;8.02;;;2.20;;
12088;SDS011;6107;49.078;8.578;2024-03-23T09:39:06;6.53;;;2.60;;
12088;SDS011;6107;49.078;8.578;2024-03-23T09:41:34;14.25;;;2.88;;
12088;SDS011;6107;49.078;8.578;2024-03-23T09:44:00;11.55;;;2.55;;
12088;SDS011;6107;49.078;8.578;2024-03-23T09:46:26;8.52;;;2.10;;
12088;SDS011;6107;49.078;8.578;2024-03-23T09:48:53;9.55;;;2.95;;
12088;SDS011;6107;49.078;8.578;2024-03-23T09:51:20;5.40;;;2.05;;
12088;SDS011;6107;49.078;8.578;2024-03-23T09:53:46;11.43;;;2.35;;
12088;SDS011;6107;49.078;8.578;2024-03-23T09:56:13;10.27;;;2.45;;
12088;SDS011;6107;49.078;8.578;2024-03-23T09:58:38;4.53;;;2.53;;
12088;SDS011;6107;49.078;8.578;2024-03-23T10:01:04;12.45;;;2.38;;
12088;SDS011;6107;49.078;8.578;2024-03-23T10:03:30;8.25;;;2.85;;
12088;SDS011;6107;49.078;8.578;2024-03-23T10:06:02;7.30;;;2.55;;
12088;SDS011;6107;49.078;8.578;2024-03-23T10:08:29;10.75;;;2.58;;
12088;SDS011;6107;49.078;8.578;2024-03-23T10:10:56;11.25;;;2.17;;
12088;SDS011;6107;49.078;8.578;2024-03-23T10:13:25;10.50;;;2.83;;
12088;SDS011;6107;49.078;8.578;2024-03-23T10:15:58;10.80;;;2.50;;
12088;SDS011;6107;49.078;8.578;2024-03-23T10:18:24;12.07;;;2.60;;
12088;SDS011;6107;49.078;8.578;2024-03-23T10:20:52;12.98;;;3.08;;
12088;SDS011;6107;49.078;8.578;2024-03-23T10:23:34;16.10;;;3.03;;
12088;SDS011;6107;49.078;8.578;2024-03-23T10:31:36;10.87;;;2.10;;
12088;SDS011;6107;49.078;8.578;2024-03-23T10:34:02;11.70;;;2.60;;
12088;SDS011;6107;49.078;8.578;2024-03-23T10:36:29;11.40;;;2.83;;
12088;SDS011;6107;49.078;8.578;2024-03-23T10:38:56;10.75;;;2.70;;
12088;SDS011;6107;49.078;8.578;2024-03-23T10:41:28;7.25;;;2.42;;
12088;SDS011;6107;49.078;8.578;2024-03-23T10:43:56;13.18;;;2.83;;
12088;SDS011;6107;49.078;8.578;2024-03-23T10:46:24;6.53;;;2.60;;
12088;SDS011;6107;49.078;8.578;2024-03-23T10:48:49;9.82;;;2.67;;
12088;SDS011;6107;49.078;8.578;2024-03-23T10:51:15;10.77;;;2.90;;
12088;SDS011;6107;49.078;8.578;2024-03-23T10:53:41;7.72;;;2.97;;
12088;SDS011;6107;49.078;8.578;2024-03-23T10:56:07;13.68;;;2.95;;
12088;SDS011;6107;49.078;8.578;2024-03-23T11:01:03;10.55;;;3.25;;
12088;SDS011;6107;49.078;8.578;2024-03-23T11:03:30;10.05;;;3.30;;
12088;SDS011;6107;49.078;8.578;2024-03-23T11:06:01;12.50;;;3.65;;
12088;SDS011;6107;49.078;8.578;2024-03-23T11:08:38;7.38;;;2.38;;
12088;SDS011;6107;49.078;8.578;2024-03-23T11:13:38;7.93;;;2.60;;
12088;SDS011;6107;49.078;8.578;2024-03-23T11:16:17;11.23;;;2.95;;
12088;SDS011;6107;49.078;8.578;2024-03-23T11:18:48;10.27;;;2.83;;
12088;SDS011;6107;49.078;8.578;2024-03-23T11:24:18;10.45;;;2.55;;
12088;SDS011;6107;49.078;8.578;2024-03-23T11:26:45;8.65;;;2.15;;
12088;SDS011;6107;49.078;8.578;2024-03-23T11:29:12;10.63;;;2.30;;
12088;SDS011;6107;49.078;8.578;2024-03-23T11:31:45;11.75;;;1.88;;
12088;SDS011;6107;49.078;8.578;2024-03-23T11:34:18;6.30;;;1.70;;
12088;SDS011;6107;49.078;8.578;2024-03-23T11:36:44;14.35;;;1.95;;
12088;SDS011;6107;49.078;8.578;2024-03-23T11:39:14;4.93;;;2.00;;
12088;SDS011;6107;49.078;8.578;2024-03-23T11:41:50;8.63;;;2.20;;
12088;SDS011;6107;49.078;8.578;2024-03-23T11:44:21;8.30;;;1.58;;
12088;SDS011;6107;49.078;8.578;2024-03-23T11:46:48;5.43;;;1.50;;
12088;SDS011;6107;49.078;8.578;2024-03-23T11:49:32;5.60;;;1.70;;
12088;SDS011;6107;49.078;8.578;2024-03-23T11:51:58;4.75;;;1.55;;
12088;SDS011;6107;49.078;8.578;2024-03-23T11:54:24;6.57;;;1.90;;
12088;SDS011;6107;49.078;8.578;2024-03-23T11:56:57;8.60;;;2.17;;
12088;SDS011;6107;49.078;8.578;2024-03-23T12:02:00;8.70;;;2.13;;
12088;SDS011;6107;49.078;8.578;2024-03-23T12:04:40;7.80;;;1.58;;
12088;SDS011;6107;49.078;8.578;2024-03-23T12:07:19;5.10;;;1.80;;
12088;SDS011;6107;49.078;8.578;2024-03-23T12:09:47;6.35;;;2.20;;
12088;SDS011;6107;49.078;8.578;2024-03-23T12:12:27;8.70;;;1.98;;
12088;SDS011;6107;49.078;8.578;2024-03-23T12:15:03;6.53;;;1.95;;
12088;SDS011;6107;49.078;8.578;2024-03-23T12:17:33;9.35;;;2.22;;
12088;SDS011;6107;49.078;8.578;2024-03-23T12:20:02;9.23;;;2.35;;
12088;SDS011;6107;49.078;8.578;2024-03-23T12:22:28;5.57;;;2.08;;
12088;SDS011;6107;49.078;8.578;2024-03-23T12:24:57;6.60;;;2.33;;
12088;SDS011;6107;49.078;8.578;2024-03-23T12:27:22;5.75;;;2.30;;
12088;SDS011;6107;49.078;8.578;2024-03-23T12:29:48;5.68;;;2.08;;
12088;SDS011;6107;49.078;8.578;2024-03-23T12:32:14;9.45;;;2.13;;
12088;SDS011;6107;49.078;8.578;2024-03-23T12:34:41;9.60;;;2.60;;
12088;SDS011;6107;49.078;8.578;2024-03-23T12:37:07;7.18;;;1.98;;
12088;SDS011;6107;49.078;8.578;2024-03-23T12:39:33;4.55;;;1.60;;
12088;SDS011;6107;49.078;8.578;2024-03-23T12:42:00;12.07;;;2.53;;
12088;SDS011;6107;49.078;8.578;2024-03-23T12:44:26;8.60;;;1.75;;
12088;SDS011;6107;49.078;8.578;2024-03-23T12:46:52;7.85;;;1.55;;
12088;SDS011;6107;49.078;8.578;2024-03-23T12:49:17;6.22;;;1.55;;
12088;SDS011;6107;49.078;8.578;2024-03-23T12:51:53;3.55;;;1.40;;
12088;SDS011;6107;49.078;8.578;2024-03-23T12:54:24;7.07;;;1.38;;
12088;SDS011;6107;49.078;8.578;2024-03-23T12:56:50;10.68;;;1.92;;
12088;SDS011;6107;49.078;8.578;2024-03-23T12:59:15;9.80;;;2.10;;
12088;SDS011;6107;49.078;8.578;2024-03-23T13:01:43;7.38;;;1.55;;
12088;SDS011;6107;49.078;8.578;2024-03-23T13:04:08;5.97;;;1.52;;
12088;SDS011;6107;49.078;8.578;2024-03-23T13:06:34;6.55;;;1.17;;
12088;SDS011;6107;49.078;8.578;2024-03-23T13:09:01;12.52;;;1.23;;
12088;SDS011;6107;49.078;8.578;2024-03-23T13:11:28;5.38;;;1.00;;
12088;SDS011;6107;49.078;8.578;2024-03-23T13:13:54;2.15;;;0.80;;
12088;SDS011;6107;49.078;8.578;2024-03-23T13:16:20;3.45;;;0.90;;
12088;SDS011;6107;49.078;8.578;2024-03-23T13:18:45;0.90;;;0.60;;
12088;SDS011;6107;49.078;8.578;2024-03-23T13:21:11;2.45;;;0.55;;
12088;SDS011;6107;49.078;8.578;2024-03-23T13:23:37;2.40;;;0.80;;
12088;SDS011;6107;49.078;8.578;2024-03-23T13:26:05;3.35;;;0.80;;
12088;SDS011;6107;49.078;8.578;2024-03-23T13:28:30;5.95;;;1.05;;
12088;SDS011;6107;49.078;8.578;2024-03-23T13:30:56;8.63;;;1.25;;
12088;SDS011;6107;49.078;8.578;2024-03-23T13:33:29;3.90;;;0.65;;
12088;SDS011;6107;49.078;8.578;2024-03-23T13:35:55;4.78;;;0.77;;
12088;SDS011;6107;49.078;8.578;2024-03-23T13:38:22;3.63;;;0.90;;
12088;SDS011;6107;49.078;8.578;2024-03-23T13:43:21;1.95;;;0.52;;
12088;SDS011;6107;49.078;8.578;2024-03-23T13:45:48;3.90;;;0.70;;
12088;SDS011;6107;49.078;8.578;2024-03-23T13:48:22;4.38;;;1.00;;
12088;SDS011;6107;49.078;8.578;2024-03-23T13:51:01;0.73;;;0.50;;
12088;SDS011;6107;49.078;8.578;2024-03-23T13:53:28;3.40;;;1.15;;
12088;SDS011;6107;49.078;8.578;2024-03-23T13:55:54;3.97;;;0.70;;
12088;SDS011;6107;49.078;8.578;2024-03-23T13:58:20;3.47;;;0.70;;
12088;SDS011;6107;49.078;8.578;2024-03-23T14:00:45;7.13;;;0.80;;
12088;SDS011;6107;49.078;8.578;2024-03-23T14:03:12;3.28;;;0.70;;
12088;SDS011;6107;49.078;8.578;2024-03-23T14:05:39;3.00;;;0.52;;
12088;SDS011;6107;49.078;8.578;2024-03-23T14:08:05;3.17;;;0.82;;
12088;SDS011;6107;49.078;8.578;2024-03-23T14:10:32;2.63;;;0.90;;
12088;SDS011;6107;49.078;8.578;2024-03-23T14:12:57;6.13;;;0.93;;
12088;SDS011;6107;49.078;8.578;2024-03-23T14:15:25;2.78;;;0.80;;
12088;SDS011;6107;49.078;8.578;2024-03-23T14:17:51;3.30;;;1.10;;
12088;SDS011;6107;49.078;8.578;2024-03-23T14:20:17;3.33;;;0.50;;
12088;SDS011;6107;49.078;8.578;2024-03-23T14:22:43;5.05;;;0.60;;
12088;SDS011;6107;49.078;8.578;2024-03-23T14:25:09;1.88;;;0.45;;
12088;SDS011;6107;49.078;8.578;2024-03-23T14:27:35;0.52;;;0.30;;
12088;SDS011;6107;49.078;8.578;2024-03-23T14:30:04;1.45;;;0.40;;
12088;SDS011;6107;49.078;8.578;2024-03-23T14:32:30;0.30;;;0.30;;
12088;SDS011;6107;49.078;8.578;2024-03-23T14:35:02;2.83;;;0.50;;
12088;SDS011;6107;49.078;8.578;2024-03-23T14:37:32;1.65;;;0.50;;
12088;SDS011;6107;49.078;8.578;2024-03-23T14:39:58;0.55;;;0.50;;
12088;SDS011;6107;49.078;8.578;2024-03-23T14:42:24;4.32;;;0.80;;
12088;SDS011;6107;49.078;8.578;2024-03-23T14:44:50;4.03;;;0.65;;
12088;SDS011;6107;49.078;8.578;2024-03-23T14:47:17;4.50;;;0.90;;
12088;SDS011;6107;49.078;8.578;2024-03-23T14:49:43;1.90;;;0.80;;
12088;SDS011;6107;49.078;8.578;2024-03-23T14:52:15;2.45;;;0.70;;
12088;SDS011;6107;49.078;8.578;2024-03-23T14:54:45;1.70;;;0.52;;
12088;SDS011;6107;49.078;8.578;2024-03-23T14:57:11;4.70;;;0.68;;
12088;SDS011;6107;49.078;8.578;2024-03-23T14:59:37;2.25;;;0.60;;
12088;SDS011;6107;49.078;8.578;2024-03-23T15:02:03;1.90;;;0.80;;
12088;SDS011;6107;49.078;8.578;2024-03-23T15:04:32;0.50;;;0.30;;
12088;SDS011;6107;49.078;8.578;2024-03-23T15:06:58;2.85;;;0.55;;
12088;SDS011;6107;49.078;8.578;2024-03-23T15:09:23;1.35;;;0.57;;
12088;SDS011;6107;49.078;8.578;2024-03-23T15:11:49;3.17;;;0.55;;
12088;SDS011;6107;49.078;8.578;2024-03-23T15:14:15;6.40;;;0.75;;
12088;SDS011;6107;49.078;8.578;2024-03-23T15:16:40;3.92;;;1.00;;
12088;SDS011;6107;49.078;8.578;2024-03-23T15:19:07;4.43;;;0.98;;
12088;SDS011;6107;49.078;8.578;2024-03-23T15:21:33;2.08;;;0.68;;
12088;SDS011;6107;49.078;8.578;2024-03-23T15:23:59;3.38;;;0.93;;
12088;SDS011;6107;49.078;8.578;2024-03-23T15:26:25;2.92;;;0.80;;
12088;SDS011;6107;49.078;8.578;2024-03-23T15:28:50;3.80;;;1.00;;
12088;SDS011;6107;49.078;8.578;2024-03-23T15:31:21;5.57;;;1.08;;
12088;SDS011;6107;49.078;8.578;2024-03-23T15:33:47;3.03;;;0.93;;
12088;SDS011;6107;49.078;8.578;2024-03-23T15:36:13;4.05;;;0.65;;
12088;SDS011;6107;49.078;8.578;2024-03-23T15:38:38;11.50;;;0.98;;
12088;SDS011;6107;49.078;8.578;2024-03-23T15:41:04;1.52;;;0.93;;
12088;SDS011;6107;49.078;8.578;2024-03-23T15:43:30;4.32;;;0.90;;
12088;SDS011;6107;49.078;8.578;2024-03-23T15:48:26;3.42;;;1.20;;
12088;SDS011;6107;49.078;8.578;2024-03-23T15:53:22;3.85;;;1.13;;
12088;SDS011;6107;49.078;8.578;2024-03-23T15:55:55;2.88;;;1.00;;
12088;SDS011;6107;49.078;8.578;2024-03-23T15:58:28;4.50;;;0.88;;
12088;SDS011;6107;49.078;8.578;2024-03-23T16:00:58;5.25;;;0.95;;
12088;SDS011;6107;49.078;8.578;2024-03-23T16:03:25;3.45;;;1.00;;
12088;SDS011;6107;49.078;8.578;2024-03-23T16:06:01;6.13;;;0.80;;
12088;SDS011;6107;49.078;8.578;2024-03-23T16:08:28;3.15;;;0.90;;
12088;SDS011;6107;49.078;8.578;2024-03-23T16:10:54;2.50;;;0.90;;
12088;SDS011;6107;49.078;8.578;2024-03-23T16:13:24;4.22;;;1.20;;
12088;SDS011;6107;49.078;8.578;2024-03-23T16:18:23;1.85;;;0.70;;